sensor_id;sensor_type;location;lat;lon;timestamp;temperature;humidity
67050;DHT22;53955;52.442;13.284;2023-03-31T00:02:12;13.80;68.90
67050;DHT22;53955;52.442;13.284;2023-03-31T00:04:39;13.90;69.80
67050;DHT22;53955;52.442;13.284;2023-03-31T00:07:11;13.90;69.70
67050;DHT22;53955;52.442;13.284;2023-03-31T00:09:38;13.90;69.20
67050;DHT22;53955;52.442;13.284;2023-03-31T00:12:06;13.80;69.50
67050;DHT22;53955;52.442;13.284;2023-03-31T00:14:33;13.90;69.10
67050;DHT22;53955;52.442;13.284;2023-03-31T00:17:01;13.90;69.30
67050;DHT22;53955;52.442;13.284;2023-03-31T00:19:29;13.80;69.00
67050;DHT22;53955;52.442;13.284;2023-03-31T00:21:58;13.90;69.30
67050;DHT22;53955;52.442;13.284;2023-03-31T00:24:27;13.80;68.60
67050;DHT22;53955;52.442;13.284;2023-03-31T00:26:57;13.80;69.00
67050;DHT22;53955;52.442;13.284;2023-03-31T00:29:23;13.90;69.20
67050;DHT22;53955;52.442;13.284;2023-03-31T00:31:50;13.80;69.60
67050;DHT22;53955;52.442;13.284;2023-03-31T00:34:18;13.90;68.90
67050;DHT22;53955;52.442;13.284;2023-03-31T00:36:44;13.80;69.10
67050;DHT22;53955;52.442;13.284;2023-03-31T00:39:12;13.80;69.00
67050;DHT22;53955;52.442;13.284;2023-03-31T00:41:40;13.80;69.00
67050;DHT22;53955;52.442;13.284;2023-03-31T00:44:10;13.80;68.70
67050;DHT22;53955;52.442;13.284;2023-03-31T00:46:42;13.80;68.30
67050;DHT22;53955;52.442;13.284;2023-03-31T00:49:15;13.80;68.70
67050;DHT22;53955;52.442;13.284;2023-03-31T00:51:47;13.80;68.30
67050;DHT22;53955;52.442;13.284;2023-03-31T00:54:14;13.70;68.70
67050;DHT22;53955;52.442;13.284;2023-03-31T00:56:44;13.60;68.40
67050;DHT22;53955;52.442;13.284;2023-03-31T00:59:13;13.60;68.70
67050;DHT22;53955;52.442;13.284;2023-03-31T01:01:43;13.50;69.30
67050;DHT22;53955;52.442;13.284;2023-03-31T01:04:11;13.50;69.60
67050;DHT22;53955;52.442;13.284;2023-03-31T01:06:46;13.40;69.20
67050;DHT22;53955;52.442;13.284;2023-03-31T01:09:16;13.40;69.40
67050;DHT22;53955;52.442;13.284;2023-03-31T01:11:44;13.40;69.00
67050;DHT22;53955;52.442;13.284;2023-03-31T01:14:13;13.30;68.60
67050;DHT22;53955;52.442;13.284;2023-03-31T01:16:40;13.30;69.60
67050;DHT22;53955;52.442;13.284;2023-03-31T01:19:11;13.30;69.30
67050;DHT22;53955;52.442;13.284;2023-03-31T01:22:01;13.30;69.60
67050;DHT22;53955;52.442;13.284;2023-03-31T01:24:56;13.30;69.60
67050;DHT22;53955;52.442;13.284;2023-03-31T01:27:40;13.20;69.80
67050;DHT22;53955;52.442;13.284;2023-03-31T01:30:27;13.20;69.80
67050;DHT22;53955;52.442;13.284;2023-03-31T01:33:19;13.20;69.70
67050;DHT22;53955;52.442;13.284;2023-03-31T01:36:13;13.20;69.90
67050;DHT22;53955;52.442;13.284;2023-03-31T01:41:51;13.20;70.30
67050;DHT22;53955;52.442;13.284;2023-03-31T01:44:22;13.20;69.50
67050;DHT22;53955;52.442;13.284;2023-03-31T01:46:53;13.20;69.80
67050;DHT22;53955;52.442;13.284;2023-03-31T01:49:25;13.10;70.10
67050;DHT22;53955;52.442;13.284;2023-03-31T01:51:58;13.20;69.70
67050;DHT22;53955;52.442;13.284;2023-03-31T01:54:30;13.20;70.10
67050;DHT22;53955;52.442;13.284;2023-03-31T01:57:02;13.30;70.10
67050;DHT22;53955;52.442;13.284;2023-03-31T01:59:35;13.30;69.80
67050;DHT22;53955;52.442;13.284;2023-03-31T02:02:06;13.30;69.80
67050;DHT22;53955;52.442;13.284;2023-03-31T02:04:37;13.20;69.60
67050;DHT22;53955;52.442;13.284;2023-03-31T02:07:11;13.30;69.70
67050;DHT22;53955;52.442;13.284;2023-03-31T02:09:43;13.20;69.60
67050;DHT22;53955;52.442;13.284;2023-03-31T02:12:13;13.30;69.60
67050;DHT22;53955;52.442;13.284;2023-03-31T02:14:43;13.20;69.20
67050;DHT22;53955;52.442;13.284;2023-03-31T02:17:15;13.30;69.20
67050;DHT22;53955;52.442;13.284;2023-03-31T02:19:46;13.40;69.50
67050;DHT22;53955;52.442;13.284;2023-03-31T02:22:15;13.20;69.60
67050;DHT22;53955;52.442;13.284;2023-03-31T02:24:45;13.30;69.40
67050;DHT22;53955;52.442;13.284;2023-03-31T02:27:17;13.20;69.50
67050;DHT22;53955;52.442;13.284;2023-03-31T02:29:46;13.30;69.40
67050;DHT22;53955;52.442;13.284;2023-03-31T02:32:17;13.30;69.70
67050;DHT22;53955;52.442;13.284;2023-03-31T02:34:45;13.30;70.00
67050;DHT22;53955;52.442;13.284;2023-03-31T02:37:12;13.30;69.80
67050;DHT22;53955;52.442;13.284;2023-03-31T02:39:41;13.40;70.10
67050;DHT22;53955;52.442;13.284;2023-03-31T02:42:09;13.40;70.10
67050;DHT22;53955;52.442;13.284;2023-03-31T02:44:38;13.40;69.70
67050;DHT22;53955;52.442;13.284;2023-03-31T02:47:07;13.40;69.40
67050;DHT22;53955;52.442;13.284;2023-03-31T02:49:34;13.50;69.20
67050;DHT22;53955;52.442;13.284;2023-03-31T02:52:37;13.40;69.40
67050;DHT22;53955;52.442;13.284;2023-03-31T02:55:17;13.50;69.90
67050;DHT22;53955;52.442;13.284;2023-03-31T02:58:12;13.40;70.10
67050;DHT22;53955;52.442;13.284;2023-03-31T03:00:52;13.40;70.00
67050;DHT22;53955;52.442;13.284;2023-03-31T03:03:28;13.50;68.90
67050;DHT22;53955;52.442;13.284;2023-03-31T03:06:06;13.50;69.50
67050;DHT22;53955;52.442;13.284;2023-03-31T03:08:46;13.50;69.30
67050;DHT22;53955;52.442;13.284;2023-03-31T03:11:24;13.40;69.30
67050;DHT22;53955;52.442;13.284;2023-03-31T03:13:56;13.50;69.60
67050;DHT22;53955;52.442;13.284;2023-03-31T03:16:31;13.50;69.10
67050;DHT22;53955;52.442;13.284;2023-03-31T03:19:02;13.50;69.30
67050;DHT22;53955;52.442;13.284;2023-03-31T03:21:29;13.50;70.20
67050;DHT22;53955;52.442;13.284;2023-03-31T03:23:56;13.50;70.00
67050;DHT22;53955;52.442;13.284;2023-03-31T03:26:24;13.50;70.10
67050;DHT22;53955;52.442;13.284;2023-03-31T03:28:53;13.40;70.40
67050;DHT22;53955;52.442;13.284;2023-03-31T03:31:20;13.50;70.50
67050;DHT22;53955;52.442;13.284;2023-03-31T03:33:49;13.50;70.40
67050;DHT22;53955;52.442;13.284;2023-03-31T03:36:16;13.50;73.00
67050;DHT22;53955;52.442;13.284;2023-03-31T03:38:42;13.50;70.40
67050;DHT22;53955;52.442;13.284;2023-03-31T03:41:09;13.50;71.10
67050;DHT22;53955;52.442;13.284;2023-03-31T03:43:35;13.50;71.20
67050;DHT22;53955;52.442;13.284;2023-03-31T03:46:02;13.50;70.80
67050;DHT22;53955;52.442;13.284;2023-03-31T03:48:29;13.50;71.20
67050;DHT22;53955;52.442;13.284;2023-03-31T03:50:58;13.50;71.60
67050;DHT22;53955;52.442;13.284;2023-03-31T03:53:25;13.60;71.10
67050;DHT22;53955;52.442;13.284;2023-03-31T03:55:52;13.50;70.90
67050;DHT22;53955;52.442;13.284;2023-03-31T03:58:18;13.60;70.50
67050;DHT22;53955;52.442;13.284;2023-03-31T04:00:45;13.50;70.90
67050;DHT22;53955;52.442;13.284;2023-03-31T04:03:12;13.50;71.30
67050;DHT22;53955;52.442;13.284;2023-03-31T04:05:40;13.50;71.60
67050;DHT22;53955;52.442;13.284;2023-03-31T04:08:08;13.50;71.20
67050;DHT22;53955;52.442;13.284;2023-03-31T04:10:35;13.40;71.10
67050;DHT22;53955;52.442;13.284;2023-03-31T04:13:01;13.50;70.90
67050;DHT22;53955;52.442;13.284;2023-03-31T04:15:28;13.50;71.60
67050;DHT22;53955;52.442;13.284;2023-03-31T04:17:54;13.50;71.80
67050;DHT22;53955;52.442;13.284;2023-03-31T04:20:22;13.50;71.90
67050;DHT22;53955;52.442;13.284;2023-03-31T04:22:52;13.50;71.00
67050;DHT22;53955;52.442;13.284;2023-03-31T04:25:20;13.50;71.20
67050;DHT22;53955;52.442;13.284;2023-03-31T04:27:48;13.50;71.10
67050;DHT22;53955;52.442;13.284;2023-03-31T04:30:20;13.40;71.20
67050;DHT22;53955;52.442;13.284;2023-03-31T04:32:49;13.50;71.60
67050;DHT22;53955;52.442;13.284;2023-03-31T04:35:16;13.30;72.20
67050;DHT22;53955;52.442;13.284;2023-03-31T04:37:45;13.40;72.30
67050;DHT22;53955;52.442;13.284;2023-03-31T04:40:12;13.40;71.70
67050;DHT22;53955;52.442;13.284;2023-03-31T04:42:40;13.40;72.00
67050;DHT22;53955;52.442;13.284;2023-03-31T04:45:07;13.30;72.00
67050;DHT22;53955;52.442;13.284;2023-03-31T04:47:34;13.40;72.10
67050;DHT22;53955;52.442;13.284;2023-03-31T04:50:01;13.40;72.00
67050;DHT22;53955;52.442;13.284;2023-03-31T04:52:28;13.30;71.80
67050;DHT22;53955;52.442;13.284;2023-03-31T04:54:55;13.40;71.90
67050;DHT22;53955;52.442;13.284;2023-03-31T04:57:21;13.40;71.80
67050;DHT22;53955;52.442;13.284;2023-03-31T04:59:49;13.50;71.70
67050;DHT22;53955;52.442;13.284;2023-03-31T05:02:16;13.40;71.00
67050;DHT22;53955;52.442;13.284;2023-03-31T05:04:48;13.40;71.50
67050;DHT22;53955;52.442;13.284;2023-03-31T05:07:15;13.30;71.20
67050;DHT22;53955;52.442;13.284;2023-03-31T05:09:41;13.30;71.80
67050;DHT22;53955;52.442;13.284;2023-03-31T05:12:08;13.40;71.10
67050;DHT22;53955;52.442;13.284;2023-03-31T05:14:35;13.40;71.20
67050;DHT22;53955;52.442;13.284;2023-03-31T05:17:03;13.40;71.30
67050;DHT22;53955;52.442;13.284;2023-03-31T05:19:29;13.40;70.90
67050;DHT22;53955;52.442;13.284;2023-03-31T05:21:56;13.50;71.00
67050;DHT22;53955;52.442;13.284;2023-03-31T05:24:22;13.50;71.30
67050;DHT22;53955;52.442;13.284;2023-03-31T05:26:49;13.60;70.50
67050;DHT22;53955;52.442;13.284;2023-03-31T05:29:17;13.60;70.20
67050;DHT22;53955;52.442;13.284;2023-03-31T05:31:43;13.50;69.90
67050;DHT22;53955;52.442;13.284;2023-03-31T05:34:12;13.70;69.60
67050;DHT22;53955;52.442;13.284;2023-03-31T05:36:38;13.80;69.60
67050;DHT22;53955;52.442;13.284;2023-03-31T05:39:05;14.00;68.80
67050;DHT22;53955;52.442;13.284;2023-03-31T05:41:32;14.10;68.20
67050;DHT22;53955;52.442;13.284;2023-03-31T05:43:59;14.40;67.10
67050;DHT22;53955;52.442;13.284;2023-03-31T05:46:26;14.70;66.20
67050;DHT22;53955;52.442;13.284;2023-03-31T05:48:53;16.20;61.10
67050;DHT22;53955;52.442;13.284;2023-03-31T05:51:20;17.80;55.00
67050;DHT22;53955;52.442;13.284;2023-03-31T05:53:47;18.30;51.70
67050;DHT22;53955;52.442;13.284;2023-03-31T05:56:13;18.50;51.30
67050;DHT22;53955;52.442;13.284;2023-03-31T05:58:40;19.90;47.40
67050;DHT22;53955;52.442;13.284;2023-03-31T06:01:08;20.50;45.40
67050;DHT22;53955;52.442;13.284;2023-03-31T06:03:36;20.00;45.30
67050;DHT22;53955;52.442;13.284;2023-03-31T06:06:04;19.30;45.90
67050;DHT22;53955;52.442;13.284;2023-03-31T06:08:33;18.30;48.20
67050;DHT22;53955;52.442;13.284;2023-03-31T06:11:03;17.30;52.40
67050;DHT22;53955;52.442;13.284;2023-03-31T06:13:30;16.70;54.50
67050;DHT22;53955;52.442;13.284;2023-03-31T06:15:58;16.60;55.00
67050;DHT22;53955;52.442;13.284;2023-03-31T06:18:26;17.00;55.10
67050;DHT22;53955;52.442;13.284;2023-03-31T06:20:54;18.50;50.50
67050;DHT22;53955;52.442;13.284;2023-03-31T06:23:20;20.50;46.20
67050;DHT22;53955;52.442;13.284;2023-03-31T06:25:49;22.60;40.20
67050;DHT22;53955;52.442;13.284;2023-03-31T06:28:15;24.10;34.50
67050;DHT22;53955;52.442;13.284;2023-03-31T06:30:42;24.00;34.20
67050;DHT22;53955;52.442;13.284;2023-03-31T06:33:08;23.80;34.80
67050;DHT22;53955;52.442;13.284;2023-03-31T06:35:36;24.80;33.10
67050;DHT22;53955;52.442;13.284;2023-03-31T06:38:03;25.90;30.70
67050;DHT22;53955;52.442;13.284;2023-03-31T06:40:30;27.30;28.20
67050;DHT22;53955;52.442;13.284;2023-03-31T06:42:58;28.90;26.00
67050;DHT22;53955;52.442;13.284;2023-03-31T06:45:25;30.70;23.60
67050;DHT22;53955;52.442;13.284;2023-03-31T06:47:51;31.90;21.60
67050;DHT22;53955;52.442;13.284;2023-03-31T06:50:18;33.10;20.30
67050;DHT22;53955;52.442;13.284;2023-03-31T06:52:45;34.30;18.30
67050;DHT22;53955;52.442;13.284;2023-03-31T06:55:12;33.00;19.60
67050;DHT22;53955;52.442;13.284;2023-03-31T06:57:39;32.40;19.20
67050;DHT22;53955;52.442;13.284;2023-03-31T07:00:09;32.20;19.80
67050;DHT22;53955;52.442;13.284;2023-03-31T07:02:35;31.50;19.60
67050;DHT22;53955;52.442;13.284;2023-03-31T07:05:03;30.30;21.20
67050;DHT22;53955;52.442;13.284;2023-03-31T07:07:30;30.30;21.30
67050;DHT22;53955;52.442;13.284;2023-03-31T07:09:56;30.50;21.20
67050;DHT22;53955;52.442;13.284;2023-03-31T07:12:23;31.00;20.80
67050;DHT22;53955;52.442;13.284;2023-03-31T07:14:50;31.30;20.00
67050;DHT22;53955;52.442;13.284;2023-03-31T07:17:18;30.40;20.10
67050;DHT22;53955;52.442;13.284;2023-03-31T07:19:45;28.90;22.10
67050;DHT22;53955;52.442;13.284;2023-03-31T07:22:12;28.40;22.70
67050;DHT22;53955;52.442;13.284;2023-03-31T07:24:39;28.20;22.80
67050;DHT22;53955;52.442;13.284;2023-03-31T07:27:06;28.20;23.70
67050;DHT22;53955;52.442;13.284;2023-03-31T07:29:33;28.10;23.60
67050;DHT22;53955;52.442;13.284;2023-03-31T07:31:59;27.80;23.20
67050;DHT22;53955;52.442;13.284;2023-03-31T07:34:27;27.10;24.90
67050;DHT22;53955;52.442;13.284;2023-03-31T07:36:54;27.20;23.90
67050;DHT22;53955;52.442;13.284;2023-03-31T07:39:21;26.60;25.30
67050;DHT22;53955;52.442;13.284;2023-03-31T07:41:47;26.20;26.10
67050;DHT22;53955;52.442;13.284;2023-03-31T07:44:14;25.90;26.70
67050;DHT22;53955;52.442;13.284;2023-03-31T07:46:42;24.80;27.50
67050;DHT22;53955;52.442;13.284;2023-03-31T07:49:08;24.10;30.30
67050;DHT22;53955;52.442;13.284;2023-03-31T07:51:41;24.10;30.60
67050;DHT22;53955;52.442;13.284;2023-03-31T07:54:08;23.90;29.70
67050;DHT22;53955;52.442;13.284;2023-03-31T07:56:34;23.60;30.60
67050;DHT22;53955;52.442;13.284;2023-03-31T07:59:01;23.20;31.00
67050;DHT22;53955;52.442;13.284;2023-03-31T08:01:27;22.60;32.80
67050;DHT22;53955;52.442;13.284;2023-03-31T08:03:54;22.10;34.00
67050;DHT22;53955;52.442;13.284;2023-03-31T08:06:23;21.50;36.00
67050;DHT22;53955;52.442;13.284;2023-03-31T08:08:51;21.20;36.40
67050;DHT22;53955;52.442;13.284;2023-03-31T08:11:18;20.80;38.80
67050;DHT22;53955;52.442;13.284;2023-03-31T08:13:45;20.70;39.70
67050;DHT22;53955;52.442;13.284;2023-03-31T08:16:12;20.80;40.80
67050;DHT22;53955;52.442;13.284;2023-03-31T08:18:39;20.80;39.00
67050;DHT22;53955;52.442;13.284;2023-03-31T08:21:06;20.60;39.50
67050;DHT22;53955;52.442;13.284;2023-03-31T08:23:35;20.70;40.30
67050;DHT22;53955;52.442;13.284;2023-03-31T08:26:12;20.60;39.50
67050;DHT22;53955;52.442;13.284;2023-03-31T08:28:39;20.60;40.70
67050;DHT22;53955;52.442;13.284;2023-03-31T08:31:06;20.60;40.20
67050;DHT22;53955;52.442;13.284;2023-03-31T08:33:34;20.60;41.80
67050;DHT22;53955;52.442;13.284;2023-03-31T08:36:02;20.60;41.00
67050;DHT22;53955;52.442;13.284;2023-03-31T08:38:29;20.40;40.10
67050;DHT22;53955;52.442;13.284;2023-03-31T08:40:58;20.20;41.30
67050;DHT22;53955;52.442;13.284;2023-03-31T08:43:29;20.00;40.70
67050;DHT22;53955;52.442;13.284;2023-03-31T08:45:57;19.80;42.60
67050;DHT22;53955;52.442;13.284;2023-03-31T08:48:26;19.60;42.30
67050;DHT22;53955;52.442;13.284;2023-03-31T08:50:56;19.40;42.60
67050;DHT22;53955;52.442;13.284;2023-03-31T08:53:25;19.00;42.80
67050;DHT22;53955;52.442;13.284;2023-03-31T08:55:55;18.50;43.40
67050;DHT22;53955;52.442;13.284;2023-03-31T08:58:34;18.10;45.90
67050;DHT22;53955;52.442;13.284;2023-03-31T09:01:08;18.00;47.00
67050;DHT22;53955;52.442;13.284;2023-03-31T09:03:44;17.90;47.80
67050;DHT22;53955;52.442;13.284;2023-03-31T09:06:13;18.30;46.20
67050;DHT22;53955;52.442;13.284;2023-03-31T09:08:41;19.00;44.60
67050;DHT22;53955;52.442;13.284;2023-03-31T09:11:25;19.50;43.20
67050;DHT22;53955;52.442;13.284;2023-03-31T09:14:12;20.10;42.20
67050;DHT22;53955;52.442;13.284;2023-03-31T09:16:47;20.30;40.90
67050;DHT22;53955;52.442;13.284;2023-03-31T09:19:20;20.20;40.70
67050;DHT22;53955;52.442;13.284;2023-03-31T09:21:51;19.90;42.20
67050;DHT22;53955;52.442;13.284;2023-03-31T09:24:21;19.70;41.50
67050;DHT22;53955;52.442;13.284;2023-03-31T09:26:51;19.40;42.10
67050;DHT22;53955;52.442;13.284;2023-03-31T09:29:23;19.50;43.60
67050;DHT22;53955;52.442;13.284;2023-03-31T09:31:54;19.50;43.20
67050;DHT22;53955;52.442;13.284;2023-03-31T09:34:24;19.40;43.30
67050;DHT22;53955;52.442;13.284;2023-03-31T09:36:51;19.10;43.30
67050;DHT22;53955;52.442;13.284;2023-03-31T09:39:18;18.70;45.30
67050;DHT22;53955;52.442;13.284;2023-03-31T09:41:47;18.40;44.90
67050;DHT22;53955;52.442;13.284;2023-03-31T09:44:25;18.20;45.80
67050;DHT22;53955;52.442;13.284;2023-03-31T09:46:53;18.20;47.00
67050;DHT22;53955;52.442;13.284;2023-03-31T09:49:21;18.40;46.10
67050;DHT22;53955;52.442;13.284;2023-03-31T09:51:57;18.60;46.70
67050;DHT22;53955;52.442;13.284;2023-03-31T09:54:27;18.90;45.60
67050;DHT22;53955;52.442;13.284;2023-03-31T09:56:55;18.90;45.30
67050;DHT22;53955;52.442;13.284;2023-03-31T09:59:30;18.80;46.00
67050;DHT22;53955;52.442;13.284;2023-03-31T10:02:00;18.40;45.80
67050;DHT22;53955;52.442;13.284;2023-03-31T10:04:29;18.10;48.20
67050;DHT22;53955;52.442;13.284;2023-03-31T10:06:58;17.90;49.40
67050;DHT22;53955;52.442;13.284;2023-03-31T10:09:26;17.70;50.70
67050;DHT22;53955;52.442;13.284;2023-03-31T10:11:58;17.50;50.20
67050;DHT22;53955;52.442;13.284;2023-03-31T10:14:38;17.30;50.90
67050;DHT22;53955;52.442;13.284;2023-03-31T10:17:06;16.90;51.00
67050;DHT22;53955;52.442;13.284;2023-03-31T10:19:34;16.80;51.70
67050;DHT22;53955;52.442;13.284;2023-03-31T10:22:04;17.10;51.90
67050;DHT22;53955;52.442;13.284;2023-03-31T10:24:39;17.30;51.60
67050;DHT22;53955;52.442;13.284;2023-03-31T10:27:15;17.60;51.30
67050;DHT22;53955;52.442;13.284;2023-03-31T10:29:45;18.00;50.80
67050;DHT22;53955;52.442;13.284;2023-03-31T10:32:18;18.20;48.80
67050;DHT22;53955;52.442;13.284;2023-03-31T10:34:47;18.20;49.30
67050;DHT22;53955;52.442;13.284;2023-03-31T10:37:17;18.00;50.90
67050;DHT22;53955;52.442;13.284;2023-03-31T10:39:44;17.90;51.50
67050;DHT22;53955;52.442;13.284;2023-03-31T10:42:18;17.50;52.30
67050;DHT22;53955;52.442;13.284;2023-03-31T10:44:47;17.30;54.50
67050;DHT22;53955;52.442;13.284;2023-03-31T10:47:19;17.20;55.60
67050;DHT22;53955;52.442;13.284;2023-03-31T10:49:49;17.00;55.50
67050;DHT22;53955;52.442;13.284;2023-03-31T10:52:19;16.80;58.00
67050;DHT22;53955;52.442;13.284;2023-03-31T10:54:49;16.80;56.80
67050;DHT22;53955;52.442;13.284;2023-03-31T10:57:17;16.70;58.30
67050;DHT22;53955;52.442;13.284;2023-03-31T11:00:01;16.80;58.10
67050;DHT22;53955;52.442;13.284;2023-03-31T11:05:32;17.00;59.50
67050;DHT22;53955;52.442;13.284;2023-03-31T11:08:09;17.30;58.30
67050;DHT22;53955;52.442;13.284;2023-03-31T11:10:43;17.40;57.00
67050;DHT22;53955;52.442;13.284;2023-03-31T11:13:14;17.50;56.10
67050;DHT22;53955;52.442;13.284;2023-03-31T11:15:45;17.70;54.00
67050;DHT22;53955;52.442;13.284;2023-03-31T11:18:22;17.90;52.80
67050;DHT22;53955;52.442;13.284;2023-03-31T11:20:52;17.80;52.60
67050;DHT22;53955;52.442;13.284;2023-03-31T11:23:22;17.70;52.90
67050;DHT22;53955;52.442;13.284;2023-03-31T11:25:54;17.50;52.80
67050;DHT22;53955;52.442;13.284;2023-03-31T11:28:24;17.30;53.20
67050;DHT22;53955;52.442;13.284;2023-03-31T11:30:53;17.20;53.50
67050;DHT22;53955;52.442;13.284;2023-03-31T11:33:25;17.20;54.40
67050;DHT22;53955;52.442;13.284;2023-03-31T11:36:06;17.30;54.50
67050;DHT22;53955;52.442;13.284;2023-03-31T11:38:40;17.50;54.80
67050;DHT22;53955;52.442;13.284;2023-03-31T11:41:09;17.50;53.90
67050;DHT22;53955;52.442;13.284;2023-03-31T11:43:39;17.30;53.40
67050;DHT22;53955;52.442;13.284;2023-03-31T11:46:10;17.30;55.40
67050;DHT22;53955;52.442;13.284;2023-03-31T11:48:39;17.30;55.30
67050;DHT22;53955;52.442;13.284;2023-03-31T11:51:09;17.30;57.00
67050;DHT22;53955;52.442;13.284;2023-03-31T11:53:37;17.10;57.90
67050;DHT22;53955;52.442;13.284;2023-03-31T11:56:04;16.90;58.10
67050;DHT22;53955;52.442;13.284;2023-03-31T11:58:34;16.90;57.20
67050;DHT22;53955;52.442;13.284;2023-03-31T12:01:05;16.90;57.90
67050;DHT22;53955;52.442;13.284;2023-03-31T12:03:36;16.90;58.10
67050;DHT22;53955;52.442;13.284;2023-03-31T12:06:08;16.90;56.60
67050;DHT22;53955;52.442;13.284;2023-03-31T12:08:38;17.10;57.40
67050;DHT22;53955;52.442;13.284;2023-03-31T12:11:08;17.30;55.40
67050;DHT22;53955;52.442;13.284;2023-03-31T12:13:38;17.30;52.90
67050;DHT22;53955;52.442;13.284;2023-03-31T12:16:10;17.30;52.50
67050;DHT22;53955;52.442;13.284;2023-03-31T12:18:44;17.30;52.20
67050;DHT22;53955;52.442;13.284;2023-03-31T12:21:17;17.50;52.20
67050;DHT22;53955;52.442;13.284;2023-03-31T12:23:45;17.50;51.90
67050;DHT22;53955;52.442;13.284;2023-03-31T12:26:26;17.40;51.90
67050;DHT22;53955;52.442;13.284;2023-03-31T12:28:59;17.40;52.30
67050;DHT22;53955;52.442;13.284;2023-03-31T12:31:30;17.30;51.50
67050;DHT22;53955;52.442;13.284;2023-03-31T12:34:00;17.30;51.80
67050;DHT22;53955;52.442;13.284;2023-03-31T12:36:38;17.10;52.30
67050;DHT22;53955;52.442;13.284;2023-03-31T12:39:11;16.80;55.20
67050;DHT22;53955;52.442;13.284;2023-03-31T12:41:43;16.60;58.10
67050;DHT22;53955;52.442;13.284;2023-03-31T12:44:22;16.20;61.20
67050;DHT22;53955;52.442;13.284;2023-03-31T12:49:50;15.80;66.00
67050;DHT22;53955;52.442;13.284;2023-03-31T12:52:24;15.90;66.20
67050;DHT22;53955;52.442;13.284;2023-03-31T12:55:02;15.80;67.60
67050;DHT22;53955;52.442;13.284;2023-03-31T12:57:35;15.60;67.80
67050;DHT22;53955;52.442;13.284;2023-03-31T13:00:21;15.80;68.30
67050;DHT22;53955;52.442;13.284;2023-03-31T13:02:48;15.70;69.50
67050;DHT22;53955;52.442;13.284;2023-03-31T13:05:45;15.60;71.30
67050;DHT22;53955;52.442;13.284;2023-03-31T13:08:49;15.80;70.90
67050;DHT22;53955;52.442;13.284;2023-03-31T13:11:17;15.70;71.20
67050;DHT22;53955;52.442;13.284;2023-03-31T13:13:45;15.70;69.70
67050;DHT22;53955;52.442;13.284;2023-03-31T13:16:18;15.80;70.00
67050;DHT22;53955;52.442;13.284;2023-03-31T13:18:50;15.80;70.80
67050;DHT22;53955;52.442;13.284;2023-03-31T13:21:19;15.80;70.30
67050;DHT22;53955;52.442;13.284;2023-03-31T13:23:46;15.80;69.80
67050;DHT22;53955;52.442;13.284;2023-03-31T13:26:38;15.70;70.20
67050;DHT22;53955;52.442;13.284;2023-03-31T13:29:16;15.40;69.40
67050;DHT22;53955;52.442;13.284;2023-03-31T13:32:20;15.20;72.00
67050;DHT22;53955;52.442;13.284;2023-03-31T13:34:54;15.10;72.20
67050;DHT22;53955;52.442;13.284;2023-03-31T13:37:36;14.90;73.90
67050;DHT22;53955;52.442;13.284;2023-03-31T13:40:24;14.60;73.30
67050;DHT22;53955;52.442;13.284;2023-03-31T13:43:27;14.50;74.10
67050;DHT22;53955;52.442;13.284;2023-03-31T13:46:18;14.40;75.30
67050;DHT22;53955;52.442;13.284;2023-03-31T13:48:59;14.60;74.80
67050;DHT22;53955;52.442;13.284;2023-03-31T13:51:37;14.70;75.10
67050;DHT22;53955;52.442;13.284;2023-03-31T13:54:35;14.60;73.80
67050;DHT22;53955;52.442;13.284;2023-03-31T13:57:34;14.70;74.50
67050;DHT22;53955;52.442;13.284;2023-03-31T14:00:19;14.70;74.30
67050;DHT22;53955;52.442;13.284;2023-03-31T14:02:59;14.70;74.60
67050;DHT22;53955;52.442;13.284;2023-03-31T14:05:33;14.70;73.60
67050;DHT22;53955;52.442;13.284;2023-03-31T14:08:02;14.80;73.90
67050;DHT22;53955;52.442;13.284;2023-03-31T14:10:33;14.80;73.70
67050;DHT22;53955;52.442;13.284;2023-03-31T14:13:05;14.90;74.40
67050;DHT22;53955;52.442;13.284;2023-03-31T14:15:32;14.90;73.90
67050;DHT22;53955;52.442;13.284;2023-03-31T14:18:01;14.90;73.20
67050;DHT22;53955;52.442;13.284;2023-03-31T14:20:34;14.90;73.00
67050;DHT22;53955;52.442;13.284;2023-03-31T14:23:10;14.90;73.00
67050;DHT22;53955;52.442;13.284;2023-03-31T14:25:46;15.00;72.40
67050;DHT22;53955;52.442;13.284;2023-03-31T14:28:29;14.90;72.60
67050;DHT22;53955;52.442;13.284;2023-03-31T14:31:08;14.90;73.30
67050;DHT22;53955;52.442;13.284;2023-03-31T14:33:41;14.80;73.20
67050;DHT22;53955;52.442;13.284;2023-03-31T14:36:13;14.90;73.60
67050;DHT22;53955;52.442;13.284;2023-03-31T14:38:44;14.90;71.90
67050;DHT22;53955;52.442;13.284;2023-03-31T14:41:17;15.00;71.80
67050;DHT22;53955;52.442;13.284;2023-03-31T14:43:47;14.90;71.10
67050;DHT22;53955;52.442;13.284;2023-03-31T14:46:19;14.90;71.50
67050;DHT22;53955;52.442;13.284;2023-03-31T14:48:47;14.90;70.70
67050;DHT22;53955;52.442;13.284;2023-03-31T14:51:16;14.80;71.50
67050;DHT22;53955;52.442;13.284;2023-03-31T14:53:43;14.70;72.20
67050;DHT22;53955;52.442;13.284;2023-03-31T14:56:11;14.80;72.00
67050;DHT22;53955;52.442;13.284;2023-03-31T14:58:42;14.80;72.50
67050;DHT22;53955;52.442;13.284;2023-03-31T15:01:14;14.80;73.30
67050;DHT22;53955;52.442;13.284;2023-03-31T15:03:43;14.80;72.10
67050;DHT22;53955;52.442;13.284;2023-03-31T15:06:11;14.80;72.80
67050;DHT22;53955;52.442;13.284;2023-03-31T15:08:38;14.80;72.70
67050;DHT22;53955;52.442;13.284;2023-03-31T15:11:09;15.00;72.40
67050;DHT22;53955;52.442;13.284;2023-03-31T15:13:41;14.90;72.50
67050;DHT22;53955;52.442;13.284;2023-03-31T15:16:20;14.90;72.00
67050;DHT22;53955;52.442;13.284;2023-03-31T15:18:55;14.90;71.80
67050;DHT22;53955;52.442;13.284;2023-03-31T15:21:23;14.90;72.50
67050;DHT22;53955;52.442;13.284;2023-03-31T15:23:51;14.90;71.30
67050;DHT22;53955;52.442;13.284;2023-03-31T15:26:20;14.90;71.40
67050;DHT22;53955;52.442;13.284;2023-03-31T15:28:52;14.90;71.10
67050;DHT22;53955;52.442;13.284;2023-03-31T15:31:20;14.90;70.90
67050;DHT22;53955;52.442;13.284;2023-03-31T15:33:49;14.90;71.80
67050;DHT22;53955;52.442;13.284;2023-03-31T15:36:15;14.80;71.40
67050;DHT22;53955;52.442;13.284;2023-03-31T15:38:42;14.90;70.70
67050;DHT22;53955;52.442;13.284;2023-03-31T15:41:13;14.80;70.60
67050;DHT22;53955;52.442;13.284;2023-03-31T15:43:46;14.90;71.60
67050;DHT22;53955;52.442;13.284;2023-03-31T15:46:24;14.80;71.90
67050;DHT22;53955;52.442;13.284;2023-03-31T15:49:01;14.80;71.40